Hailey, ID (83333)

8:37 PM MDT on August 30, 2016 (GMT -0600)
East Fork | | Change Station
Active Advisory: Fire Weather Warning

Elev 5630 ft 43.60 °N, 114.33 °W | Updated 13 seconds ago

Scattered Clouds
Scattered Clouds
68.4 °F
Feels Like 68.4 °F
N
0.0
Wind Variable Wind from ESE
Gusts 1.0 mph

Today
High -- | Low -- °F
--% Chance of Precip.
Yesterday
High -- | Low -- °F
Precip. -- in
Pressure 30.07 in
Visibility 10.0 miles
Clouds Scattered Clouds 12000 ft
Dew Point 39 °F
Humidity 34%
Rainfall 0.00 in
Snow Depth Not available.
6:59 AM 8:15 PM
Waning Crescent, 2% visible
METAR KSUN 310147Z 14006KT 10SM SCT120 24/07 A3007
Pressure 30.07 in
Visibility 10.0 miles
Clouds Scattered Clouds 12000 ft
Dew Point 39 °F
Humidity 34%
Rainfall 0.00 in
Snow Depth Not available.
6:59 AM 8:15 PM
Waning Crescent, 2% visible
METAR KSUN 310147Z 14006KT 10SM SCT120 24/07 A3007

10-Day Weather Forecast

Almanac

Astronomy

Aug. 30, 2016 Rise Set
Actual Time
Civil Twilight
Nautical Twilight
Astronomical Twilight
Moon
Length of Visible Light
Length of Day
Tomorrow will be .
, % of the Moon is Illuminated

Today's Extremes

State Highs State Lows

Community

WunderPhotos

Upload Photos

1,936,002 photos uploaded!

WunderBlog® & News

Nearby

Air Quality

  Air Quality AQ Index Pollutant
Not available.

Snow Depth

Station Depth Elevation

Earthquake Activity

City Distance Mag. Time & Date
Minimum magnitude displayed is 2.5.

Coastal Water Temperatures

Place Temperature

Stations

Nearby Weather Stations

Station Location Temp. Windchill Dew Point Humidity Wind Precip. Elev Updated Type
                   

Watches & Warnings

Fire Weather Warning
Issued: 2:52 PM MDT Aug. 30, 2016 – National Weather Service

... Red flag warning now in effect until 10 PM MDT Thursday for
gusty winds and low relative humidity for fire weather zones
422... 475 and 476...

* affected area... fire weather zone 422. Fire weather zone 475.
Fire weather zone 476. Including Lemhi... Lost River Range...
Salmon Challis nf and sawtooth nf.

* Thunderstorms... widely scattered thunderstorms Wednesday
afternoon through early evening.

* Wind... south to southwest 10 to 20 mph with gusts near 30 mph.

* Humidity... 9 to 14 percent.

* Haines... 6 on Wednesday.

* Impacts... any fires that develop will likely spread rapidly.
Outdoor burning is not recommended.

Precautionary/preparedness actions...

A red flag warning means that critical fire weather conditions
are either occurring now... or will shortly. Fires may experience
rapid rates of growth. Please advise the appropriate officials or
fire crews in the field of the red flag warning for portions of
southeast Idaho.